Startpagina
METAR-TAF:

METAR-TAF

Vliegvelden :

Rajahmundry, India

breedte: 17-06-37N, lengte: 81-49-06E, hoogte: 46 m

Actueel weer

Dit bericht is 8 minuten geleden gemaakt, om 13:30 UTC
Wind 7 kt uit het westnoordwesten
Temperatuur 27°C
Vochtigheid 84%
Druk 1000 hPa
Zicht: 6000 m
Verspreide wolken op 1800 ft
Verspreide wolken op 2500 ft
Geheel bewolkt op 8000 ft

METAR: VORY 171330Z 30007KT 6000 SCT018 SCT025 OVC080 27/24 Q1000 NOSIG

Tijdstip: 19:08 (13:38 UTC)


TAF: ontbreekt

Waarnemingen en weersverwachtingen van meer dan 4000 vliegvelden (METAR en TAF).

De beschikbare stations zijn de gele en rode punten op de kaart.

Ga met uw muis naar het station om de naam te zien.

Klik dan om waarnemingen en weersverwachtingen te zien.

kaart wijzigen: klik op de groene knoppen met een zwart kruis om in te zoomen, op de groene knop met een streepje om uit te zoomen of op de groene pijlen voor aangrenzende kaarten.


METAR-TAF: